IE-0033 weather

Stradbelly Airstrip
County Laois, Ireland

Public forecast

Using degrees Celsius for public forecast. Weather courtesy of forecast.io.

METAR (pilot weather report)

Closest report is Casement Air Base, 29.9 nm (55.4 km) ENE. Retrieved 2019/06/17 18:00 UTC (14 minutes ago):

EIME 171800Z 26009KT 9999 FEW018 SCT040 BKN080 17/09 Q1011

TAF (pilot weather forecast)

Closest forecast is Dublin Airport, 39.3 nm (72.8 km) NE. Retrieved 2019/06/17 18:11 UTC (3 minutes ago):

TAF EIDW 171700Z 1718/1818 24007KT 9999 FEW020 SCT040 BECMG 1811/1813 14012KT